• Join FlightAware (Why Join?)
  • Login
  • US Flag 
10:36AM EDT


 

Airport Tracker/Info


-or-


 

Live Flight TrackerFlight Track Log ✈ UAL6148 ✈ 18-Apr-2013 ✈ KLNK - KDEN

Flight Track Log - Related Links

Times and Time Zones

All times are in EDT time to prevent confusion due to time zone crossing. See the UAL6148 flight status page for this flight to view local times or setup timezone preferences in your user account.

Time Position Orientation Groundspeed Altitude Reporting Facility
EDT Latitude Longitude Course Direction KTS MPH feet Rate Location/Type
10:24PM 40.8761 -96.8219 295° West 181 208 4,700  Level Minneapolis Center
10:25PM 40.8617 -96.8978 256° West 232 267 7,100 2,280 Climbing Minneapolis Center
10:26PM 40.8567 -97.0114 267° West 234 269 9,900 2,040 Climbing Minneapolis Center
10:27PM 40.8367 -97.1203 256° West 273 314 11,800 1,680 Climbing Minneapolis Center
10:28PM 40.8175 -97.2381 258° West 306 352 13,400 1,620 Climbing Minneapolis Center
10:29PM 40.7958 -97.3628 257° West 328 377 15,200 1,800 Climbing Minneapolis Center
10:30PM 40.7736 -97.4900 257° West 342 394 17,200 1,800 Climbing Minneapolis Center
10:31PM 40.7508 -97.6178 257° West 354 407 18,900 1,740 Climbing Minneapolis Center
10:32PM 40.7400 -97.7492 264° West 358 412 20,800 1,800 Climbing Minneapolis Center
10:33PM 40.7458 -97.9064 273° West 358 412 22,700 1,620 Climbing Minneapolis Center
10:34PM 40.7497 -98.0422 272° West 365 420 24,200 1,380 Climbing Minneapolis Center
10:35PM 40.7533 -98.1811 272° West 375 432 25,600 1,380 Climbing Minneapolis Center
10:36PM 40.7553 -98.3197 271° West 376 433 27,100 1,380 Climbing Minneapolis Center
10:37PM 40.7594 -98.4586 272° West 377 434 28,500 1,320 Climbing Minneapolis Center
10:38PM 40.7614 -98.5906 271° West 375 432 29,900 1,320 Climbing Minneapolis Center
10:39PM 40.7656 -98.7275 272° West 374 430 31,300 1,020 Climbing Minneapolis Center
10:40PM 40.7678 -98.8664 271° West 376 433 32,000 600 Climbing Minneapolis Center
10:41PM 40.7700 -99.0128 271° West 391 450 32,600 780 Climbing Minneapolis Center
10:42PM 40.7731 -99.1758 271° West 406 467 33,700 1,020 Climbing Minneapolis Center
10:43PM 40.7739 -99.2664 271° West 408 470 34,300 1,020 Climbing Denver Center
10:44PM 40.7764 -99.4158 271° West 406 467 35,400 780 Climbing Denver Center
10:45PM 40.7772 -99.5650 270° West 406 467 36,000 240 Climbing Denver Center
10:46PM 40.7794 -99.7508 271° West 423 487 36,000  Level Denver Center
10:47PM 40.7808 -99.9056 271° West 435 501 36,000  Level Denver Center
10:48PM 40.7825 -100.0589 271° West 437 503 36,000  Level Denver Center
10:49PM 40.7842 -100.2369 271° West 436 502 36,000  Level Denver Center
10:50PM 40.7858 -100.3886 271° West 434 499 36,000  Level Denver Center
10:51PM 40.7864 -100.5672 270° West 435 501 36,000  Level Denver Center
10:52PM 40.7769 -100.7231 265° West 435 501 36,000  Level Denver Center
10:53PM 40.7506 -100.8775 257° West 436 502 36,000  Level Denver Center
10:54PM 40.7211 -101.0564 258° West 443 510 36,000  Level Denver Center
10:55PM 40.6953 -101.2075 257° West 441 507 36,000  Level Denver Center
10:56PM 40.6689 -101.3583 257° West 441 507 36,000  Level Denver Center
10:57PM 40.6381 -101.5347 257° West 443 510 36,000  Level Denver Center
10:58PM 40.6114 -101.6856 257° West 443 510 36,000  Level Denver Center
10:59PM 40.5797 -101.8614 257° West 442 509 36,000  Level Denver Center
11:00PM 40.5511 -102.0119 256° West 444 511 36,000  Level Denver Center
11:01PM 40.5233 -102.1631 256° West 444 511 36,000  Level Denver Center
11:02PM 40.4908 -102.3397 256° West 446 513 36,000  Level Denver Center
11:03PM 40.4622 -102.4914 256° West 447 514 36,000  Level Denver Center
11:04PM 40.4294 -102.6642 256° West 438 504 36,000 -780 Level Denver Center
11:05PM 40.4017 -102.8106 256° West 439 505 34,500 -1,800 Descending Denver Center
11:07PM 40.3719 -102.9681 256° West 441 507 32,400 -2,220 Descending Denver Center
11:08PM 40.3411 -103.1278 256° West 448 516 30,000 -2,520 Descending Denver Center
11:09PM 40.3097 -103.2944 256° West 465 535 27,300 -2,880 Descending Denver Center
11:10PM 40.2717 -103.4847 255° West 457 526 24,100 -2,880 Descending Denver Center
11:11PM 40.2428 -103.6367 256° West 429 494 21,500 -2,400 Descending Denver Center
11:12PM 40.2150 -103.7797 256° West 423 487 19,300 -1,800 Descending Denver Center
11:13PM 40.2039 -103.9097 264° West 328 377 17,900 -1,620 Descending Denver Center
11:14PM 40.2172 -104.0206 279° West 309 356 16,100 -1,860 Descending Denver Center
11:15PM 40.2253 -104.1261 276° West 295 339 14,100 -1,620 Descending Denver Center
11:16PM 40.2344 -104.2119 278° West 285 328 12,800 -1,140 Descending Denver Center
11:17PM 40.2444 -104.3211 277° West 249 287 11,800 -900 Descending Denver Center
11:18PM 40.2486 -104.4044 274° West 224 258 11,000 -1,020 Descending Denver Center
11:19PM 40.2061 -104.4744 232° Southwest 249 287 9,800 -1,020 Descending Denver Center
11:20PM 40.1656 -104.5411 231° Southwest 236 272 9,000 -420 Descending Denver Center
11:21PM 40.1042 -104.5919 212° Southwest 251 289 9,000 -480 Level Denver Center
11:22PM 40.0472 -104.6428 214° Southwest 250 288 8,100 -900 Descending Denver Center
11:23PM 39.9933 -104.6792 207° Southwest 223 257 7,200 -900 Descending Denver Center
11:24PM 39.9406 -104.6864 186° South 177 204 6,300 -840 Descending Denver Center
11:25PM 39.8997 -104.6867 180° South 150 173 5,500 -780 Descending Denver Center
11:27PM 39.8617 -104.6732 180° South  Level Estimated
11:34PM 39.8617 -104.6732 180° South  Level Estimated
11:35PM 39.8617 -104.6732 180° South  Level Estimated
11:36PM 39.8617 -104.6732 180° South  Level Estimated